createdAt,value
2023-08-01T00:04:43.922Z,24.9
2023-08-01T00:10:38.241Z,24.9
2023-08-01T00:16:40.760Z,24.9
2023-08-01T00:22:33.292Z,24.9
2023-08-01T00:28:29.236Z,24.9
2023-08-01T00:34:21.306Z,24.9
2023-08-01T00:39:58.000Z,24.9
2023-08-01T00:45:49.284Z,25
2023-08-01T00:51:41.438Z,25
2023-08-01T00:57:33.178Z,25
2023-08-01T01:03:26.081Z,25
2023-08-01T01:09:19.284Z,25
2023-08-01T01:15:11.248Z,25
2023-08-01T01:21:03.303Z,25.1
2023-08-01T01:27:01.063Z,25.1
2023-08-01T01:32:53.725Z,25.1
2023-08-01T01:38:14.914Z,25.1
2023-08-01T01:44:06.579Z,25.1
2023-08-01T01:49:58.802Z,25.1
2023-08-01T01:55:50.292Z,25.1
2023-08-01T02:01:42.158Z,25.1
2023-08-01T02:07:33.619Z,25.1
2023-08-01T02:13:25.103Z,25.1
2023-08-01T02:19:17.625Z,25.1
2023-08-01T02:25:12.045Z,25.1
2023-08-01T02:31:02.922Z,25.1
2023-08-01T02:36:56.650Z,25.1
2023-08-01T02:42:48.773Z,25.1
2023-08-01T02:48:40.244Z,25.1
2023-08-01T02:54:31.145Z,25.1
2023-08-01T03:00:23.253Z,25.1
2023-08-01T03:06:10.266Z,25.1
2023-08-01T03:12:15.294Z,25.1
2023-08-01T03:18:07.209Z,25.1
2023-08-01T03:23:57.998Z,25.1
2023-08-01T03:29:49.958Z,25.2
2023-08-01T03:35:42.080Z,25.1
2023-08-01T03:41:32.739Z,25.2
2023-08-01T03:47:24.941Z,25.2
2023-08-01T03:53:00.928Z,25.2
2023-08-01T03:59:08.662Z,25.2
2023-08-01T04:05:01.562Z,25.2
2023-08-01T04:10:53.649Z,25.2
2023-08-01T04:16:44.644Z,25.2
2023-08-01T04:22:35.599Z,25.2
2023-08-01T04:28:27.086Z,25.2
2023-08-01T04:34:18.475Z,25.2
2023-08-01T04:40:09.859Z,25.2
2023-08-01T04:46:01.154Z,25.1
2023-08-01T04:51:52.049Z,25.1
2023-08-01T04:57:29.163Z,25
2023-08-01T05:03:21.061Z,25
2023-08-01T05:09:12.598Z,24.9
2023-08-01T05:15:03.875Z,24.9
2023-08-01T05:20:55.682Z,24.9
2023-08-01T05:26:47.263Z,24.8
2023-08-01T05:32:38.518Z,24.8
2023-08-01T05:38:30.469Z,24.8
2023-08-01T05:44:21.730Z,24.7
2023-08-01T05:50:14.232Z,24.7
2023-08-01T05:56:06.978Z,24.7
2023-08-01T06:02:00.531Z,24.6
2023-08-01T06:07:37.960Z,24.6
2023-08-01T06:13:14.635Z,24.6
2023-08-01T06:18:51.329Z,24.6
2023-08-01T06:24:43.467Z,24.6
2023-08-01T06:30:37.343Z,24.5
2023-08-01T06:36:29.236Z,24.5
2023-08-01T06:42:21.411Z,24.4
2023-08-01T06:48:13.600Z,24.5
2023-08-01T06:54:05.893Z,24.4
2023-08-01T06:59:58.095Z,24.5
2023-08-01T07:05:51.883Z,24.4
2023-08-01T07:11:45.436Z,24.4
2023-08-01T07:17:37.401Z,24.5
2023-08-01T07:23:29.282Z,24.4
2023-08-01T07:29:23.151Z,24.4
2023-08-01T07:35:15.659Z,24.5
2023-08-01T07:41:07.848Z,24.5
2023-08-01T07:46:59.090Z,24.5
2023-08-01T07:52:51.288Z,24.6
2023-08-01T07:58:43.970Z,24.6
2023-08-01T08:04:36.460Z,24.6
2023-08-01T08:10:28.159Z,24.6
2023-08-01T08:16:20.049Z,24.6
2023-08-01T08:22:11.514Z,24.6
2023-08-01T08:27:17.792Z,24.6
2023-08-01T08:32:54.247Z,24.7
2023-08-01T08:38:47.593Z,24.7
2023-08-01T08:44:39.784Z,24.7
2023-08-01T08:50:32.977Z,24.7
2023-08-01T08:56:24.837Z,24.7
2023-08-01T09:02:17.495Z,24.8
2023-08-01T09:08:13.072Z,24.8
2023-08-01T09:14:04.517Z,24.8
2023-08-01T09:19:58.983Z,24.8
2023-08-01T09:25:37.725Z,24.8
2023-08-01T09:31:31.331Z,24.8
2023-08-01T09:37:23.547Z,24.8
2023-08-01T09:42:59.286Z,24.8
2023-08-01T09:48:55.053Z,24.8
2023-08-01T09:54:31.675Z,24.8
2023-08-01T10:00:22.914Z,24.9
2023-08-01T10:06:15.531Z,24.9
2023-08-01T10:12:08.126Z,24.9
2023-08-01T10:18:01.464Z,24.9
2023-08-01T10:23:53.218Z,24.9
2023-08-01T10:29:29.406Z,24.9
2023-08-01T10:35:06.816Z,24.9
2023-08-01T10:40:58.439Z,25
2023-08-01T10:46:52.718Z,25
2023-08-01T10:52:44.501Z,25
2023-08-01T10:58:40.774Z,25
2023-08-01T11:04:18.061Z,25.1
2023-08-01T11:10:09.991Z,25.1
2023-08-01T11:16:01.290Z,25.1
2023-08-01T11:21:36.847Z,25.1
2023-08-01T11:27:29.288Z,25.1
2023-08-01T11:33:21.454Z,25.1
2023-08-01T11:39:13.970Z,25.1
2023-08-01T11:45:05.437Z,25.1
2023-08-01T11:50:57.670Z,25.1
2023-08-01T11:56:49.336Z,25.1
2023-08-01T12:02:43.088Z,25.1
2023-08-01T12:08:36.996Z,25.1
2023-08-01T12:14:30.567Z,25.1
2023-08-01T12:20:38.771Z,25.2
2023-08-01T12:26:31.080Z,25.2
2023-08-01T12:32:22.764Z,25.2
2023-08-01T12:38:15.057Z,25.2
2023-08-01T12:44:06.864Z,25.2
2023-08-01T12:50:03.210Z,25.2
2023-08-01T12:55:54.905Z,25.2
2023-08-01T13:01:31.666Z,25.3
2023-08-01T13:07:23.693Z,25.3
2023-08-01T13:13:15.544Z,25.3
2023-08-01T13:19:20.029Z,25.3
2023-08-01T13:25:14.199Z,25.3
2023-08-01T13:31:06.041Z,25.3
2023-08-01T13:36:58.846Z,25.3
2023-08-01T13:42:49.136Z,25.3
2023-08-01T13:48:55.488Z,25.3
2023-08-01T13:54:49.820Z,25.3
2023-08-01T14:00:48.019Z,25.3
2023-08-01T14:06:40.478Z,25.3
2023-08-01T14:12:32.509Z,25.3
2023-08-01T14:18:24.563Z,25.3
2023-08-01T14:24:15.804Z,25.3
2023-08-01T14:30:07.322Z,25.3
2023-08-01T14:35:59.791Z,25.3
2023-08-01T14:42:51.646Z,25.3
2023-08-01T14:48:44.003Z,25.3
2023-08-01T14:54:54.227Z,25.3
2023-08-01T15:00:45.451Z,25.3
2023-08-01T15:06:40.833Z,25.3
2023-08-01T15:12:18.150Z,25.3
2023-08-01T15:17:54.700Z,25.3
2023-08-01T15:23:46.355Z,25.3
2023-08-01T15:29:37.989Z,25.4
2023-08-01T15:35:29.462Z,25.3
2023-08-01T15:41:20.908Z,25.4
2023-08-01T15:47:16.170Z,25.4
2023-08-01T15:53:07.887Z,25.4
2023-08-01T15:59:01.144Z,25.4
2023-08-01T16:04:52.501Z,25.3
2023-08-01T16:10:29.249Z,25.4
2023-08-01T16:16:20.640Z,25.4
2023-08-01T16:21:58.986Z,25.4
2023-08-01T16:27:51.464Z,25.4
2023-08-01T16:33:27.723Z,25.4
2023-08-01T16:39:21.049Z,25.4
2023-08-01T16:45:13.796Z,25.4
2023-08-01T16:51:17.818Z,25.4
2023-08-01T16:57:08.876Z,25.4
2023-08-01T17:03:01.095Z,25.4
2023-08-01T17:08:53.091Z,25.4
2023-08-01T17:14:46.328Z,25.4
2023-08-01T17:20:37.986Z,25.4
2023-08-01T17:26:29.723Z,25.4
2023-08-01T17:32:22.575Z,25.4
2023-08-01T17:38:14.238Z,25.5
2023-08-01T17:44:05.433Z,25.5
2023-08-01T17:49:59.125Z,25.5
2023-08-01T17:55:35.880Z,25.4
2023-08-01T18:00:57.675Z,25.5
2023-08-01T18:06:37.030Z,25.5
2023-08-01T18:12:12.816Z,25.5
2023-08-01T18:17:51.241Z,25.5
2023-08-01T18:23:42.792Z,25.6
2023-08-01T18:29:34.414Z,25.5
2023-08-01T18:35:27.003Z,25.5
2023-08-01T18:41:21.012Z,25.5
2023-08-01T18:47:13.704Z,25.5
2023-08-01T18:53:05.856Z,25.5
2023-08-01T18:58:42.870Z,25.5
2023-08-01T19:04:34.334Z,25.5
2023-08-01T19:10:31.791Z,25.5
2023-08-01T19:16:25.515Z,25.5
2023-08-01T19:22:16.884Z,25.5
2023-08-01T19:28:09.809Z,25.5
2023-08-01T19:34:02.489Z,25.5
2023-08-01T19:39:53.714Z,25.5
2023-08-01T19:45:44.950Z,25.5
2023-08-01T19:51:23.190Z,25.5
2023-08-01T19:57:15.109Z,25.5
2023-08-01T20:02:51.750Z,25.5
2023-08-01T20:08:46.761Z,25.5
2023-08-01T20:14:37.745Z,25.5
2023-08-01T20:20:14.267Z,25.5
2023-08-01T20:26:05.179Z,25.5
2023-08-01T20:31:56.725Z,25.5
2023-08-01T20:37:48.760Z,25.5
2023-08-01T20:43:40.118Z,25.5
2023-08-01T20:49:34.969Z,25.5
2023-08-01T20:55:26.313Z,25.5
2023-08-01T21:01:18.051Z,25.4
2023-08-01T21:07:09.828Z,25.4
2023-08-01T21:13:16.762Z,25.4
2023-08-01T21:18:54.213Z,25.4
2023-08-01T21:24:46.319Z,25.4
2023-08-01T21:30:22.269Z,25.4
2023-08-01T21:36:00.181Z,25.4
2023-08-01T21:41:51.662Z,25.4
2023-08-01T21:47:44.104Z,25.4
2023-08-01T21:53:36.065Z,25.4
2023-08-01T21:59:28.372Z,25.4
2023-08-01T22:05:21.072Z,25.4
2023-08-01T22:11:14.297Z,25.4
2023-08-01T22:16:51.057Z,25.4
2023-08-01T22:22:27.957Z,25.4
2023-08-01T22:28:20.391Z,25.4
2023-08-01T22:34:12.405Z,25.4
2023-08-01T22:40:04.012Z,25.4
2023-08-01T22:45:40.286Z,25.4
2023-08-01T22:51:45.134Z,25.4
2023-08-01T22:57:21.560Z,25.4
2023-08-01T23:02:58.084Z,25.4
2023-08-01T23:08:50.268Z,25.4
2023-08-01T23:14:40.204Z,25.4
2023-08-01T23:20:01.451Z,25.3
2023-08-01T23:25:53.764Z,25.4
2023-08-01T23:31:46.315Z,25.3
2023-08-01T23:37:22.368Z,25.4
2023-08-01T23:43:14.385Z,25.4
2023-08-01T23:49:06.418Z,25.3
2023-08-01T23:54:57.847Z,25.4
